MUCM/CMW METAR and TAF weather

Enter ICAO airport designator
Station Type Date Time Source
MUCM METAR 2020/07/02 19:05 UTC NOAA

MUCM 021905Z AUTO 12007KT 080V170 34/22 Q1014


Station Type Date Time Source
MUCM Decoded METAR 2020/07/02 19:05 UTC NOAA

Camaguey Aeropuerto, Cuba (MUCM) 21-25N 077-51W 118M
Jul 02, 2020 - 03:05 PM EDT / 2020.07.02 1905 UTC
Wind: from the ESE (120 degrees) at 8 MPH (7 KT) (direction variable):0
Temperature: 93 F (34 C)
Heat index: 100.0 F (37.8 C):1
Dew Point: 71 F (22 C)
Relative Humidity: 49%
Pressure (altimeter): 29.94 in. Hg (1014 hPa)
ob: MUCM 021905Z AUTO 12007KT 080V170 34/22 Q1014
cycle: 19

Station Type Date Time Source
MUCM TAF 2020/07/02 18:07 UTC NOAA

TAF MUCM 021700Z 0218/0318 06010KT 9000 SCT020
TEMPO 0218/0224 VRB10KT 5000 TS SCT018CB BKN020
BECMG 0301/0303 04005KT

Example: see airport list